Time;durP1;ratioP1;P1;durP2;ratioP2;P2;SDS_P1;SDS_P2;PMS_P1;PMS_P2;Temp;Humidity;BMP_temperature;BMP_pressure;BME280_temperature;BME280_humidity;BME280_pressure;Samples;Min_cycle;Max_cycle;Signal;HPM_P1;HPM_P2
2021/10/10 00:00:55;;;;;;;70.97;43.60;;;;;;;1.22;100.00;100416.50;2106724;28;20212;-78
2021/10/10 00:01:56;;;;;;;76.30;43.05;;;;;;;1.20;100.00;100417.69;2114795;28;20374;-78
2021/10/10 00:02:58;;;;;;;69.70;42.50;;;;;;;1.18;100.00;100411.84;2114780;28;20723;-78
2021/10/10 00:04:00;;;;;;;65.35;42.40;;;;;;;1.16;100.00;100422.56;2115525;28;20197;-78
2021/10/10 00:05:03;;;;;;;73.60;43.05;;;;;;;1.12;100.00;100416.88;2114347;28;20200;-78
2021/10/10 00:06:08;;;;;;;67.90;42.00;;;;;;;1.15;100.00;100420.94;2106409;28;20225;-78
2021/10/10 00:07:12;;;;;;;70.18;40.25;;;;;;;1.11;100.00;100417.91;2114612;28;20552;-78
2021/10/10 00:08:17;;;;;;;74.40;42.13;;;;;;;1.13;100.00;100426.41;2114956;28;20221;-77
2021/10/10 00:09:18;;;;;;;69.95;41.70;;;;;;;1.13;100.00;100423.78;2114996;28;20273;-78
2021/10/10 00:10:21;;;;;;;69.70;41.70;;;;;;;1.10;100.00;100416.28;2106155;28;20190;-78
2021/10/10 00:11:26;;;;;;;67.43;42.25;;;;;;;1.11;100.00;100420.53;2106104;28;20854;-78
2021/10/10 00:12:37;;;;;;;65.63;41.45;;;;;;;1.10;100.00;100415.47;2114949;28;20643;-77
2021/10/10 00:13:46;;;;;;;79.78;42.85;;;;;;;1.09;100.00;100416.47;2115861;28;20208;-77
2021/10/10 00:14:52;;;;;;;69.75;42.55;;;;;;;1.03;100.00;100412.81;2116502;27;20228;-77
2021/10/10 00:15:59;;;;;;;72.38;42.35;;;;;;;1.04;100.00;100419.72;2116030;28;20216;-77
2021/10/10 00:17:04;;;;;;;69.60;42.05;;;;;;;1.04;100.00;100422.34;2116099;28;20222;-77
2021/10/10 00:18:06;;;;;;;62.42;40.83;;;;;;;1.03;100.00;100415.44;2108159;28;20676;-77
2021/10/10 00:19:11;;;;;;;66.90;40.22;;;;;;;0.97;100.00;100413.66;2116144;28;20197;-77
2021/10/10 00:20:21;;;;;;;71.53;39.08;;;;;;;0.99;100.00;100414.25;2108499;28;20203;-77
2021/10/10 00:21:30;;;;;;;69.00;40.33;;;;;;;0.98;100.00;100414.44;2108849;28;20209;-77
2021/10/10 00:22:34;;;;;;;72.00;39.47;;;;;;;0.97;100.00;100418.09;2108241;28;20218;-77
2021/10/10 00:23:36;;;;;;;66.90;40.30;;;;;;;0.97;100.00;100413.66;2116010;28;20679;-76
2021/10/10 00:24:37;;;;;;;74.28;40.28;;;;;;;0.98;100.00;100417.09;2116666;27;20655;-76
2021/10/10 00:25:43;;;;;;;69.75;40.58;;;;;;;0.96;100.00;100414.66;2115979;28;20618;-76
2021/10/10 00:26:46;;;;;;;65.85;40.20;;;;;;;0.97;100.00;100412.84;2108555;28;20234;-77
2021/10/10 00:27:56;;;;;;;67.50;41.60;;;;;;;0.94;100.00;100416.66;2107850;28;20283;-77
2021/10/10 00:29:02;;;;;;;72.00;41.50;;;;;;;0.95;100.00;100420.09;2108949;28;20683;-77
2021/10/10 00:30:10;;;;;;;65.88;40.38;;;;;;;0.95;100.00;100417.47;2108147;28;20220;-78
2021/10/10 00:31:12;;;;;;;70.05;41.88;;;;;;;0.92;100.00;100412.63;2108594;28;20206;-78
2021/10/10 00:32:15;;;;;;;68.78;40.90;;;;;;;0.92;100.00;100418.69;2116069;28;20195;-78
2021/10/10 00:33:25;;;;;;;66.65;40.83;;;;;;;0.94;100.00;100426.34;2116170;27;20276;-78
2021/10/10 00:34:30;;;;;;;66.00;40.55;;;;;;;0.90;100.00;100420.69;2108696;28;20193;-78
2021/10/10 00:35:40;;;;;;;67.90;40.00;;;;;;;0.90;100.00;100422.53;2115804;28;20193;-77
2021/10/10 00:36:46;;;;;;;71.10;41.08;;;;;;;0.88;100.00;100417.47;2116492;27;20205;-78
2021/10/10 00:37:55;;;;;;;63.80;41.00;;;;;;;0.87;100.00;100421.09;2108088;28;20212;-78
2021/10/10 00:38:57;;;;;;;71.57;41.13;;;;;;;0.84;100.00;100418.84;2108950;28;20288;-78
2021/10/10 00:40:02;;;;;;;66.47;40.88;;;;;;;0.85;100.00;100415.22;2107490;28;20208;-78
2021/10/10 00:41:06;;;;;;;68.25;41.30;;;;;;;0.80;100.00;100409.78;2115926;28;20330;-78
2021/10/10 00:42:12;;;;;;;66.93;39.72;;;;;;;0.80;100.00;100415.03;2116288;27;20201;-78
2021/10/10 00:43:17;;;;;;;70.95;40.90;;;;;;;0.78;100.00;100412.59;2115814;28;20197;-78
2021/10/10 00:44:23;;;;;;;67.07;40.92;;;;;;;0.76;100.00;100419.03;2115878;28;20275;-78
2021/10/10 00:45:28;;;;;;;66.95;39.45;;;;;;;0.74;100.00;100416.63;2116358;28;20181;-78
2021/10/10 00:46:31;;;;;;;70.50;40.75;;;;;;;0.75;100.00;100406.91;2116132;27;20212;-77
2021/10/10 00:47:33;;;;;;;70.35;40.15;;;;;;;0.74;100.00;100405.31;2116101;28;20185;-77
2021/10/10 00:48:38;;;;;;;65.10;40.20;;;;;;;0.72;100.00;100412.56;2116477;28;20197;-78
2021/10/10 00:49:43;;;;;;;68.45;41.55;;;;;;;0.70;100.00;100404.91;2115304;28;20207;-78
2021/10/10 00:50:46;;;;;;;72.70;41.05;;;;;;;0.67;100.00;100397.41;2107968;28;20232;-78
2021/10/10 00:51:55;;;;;;;66.22;40.08;;;;;;;0.68;100.00;100404.25;2115856;28;20189;-78
2021/10/10 00:52:57;;;;;;;71.68;40.85;;;;;;;0.66;100.00;100405.47;2115795;28;20208;-78
2021/10/10 00:54:01;;;;;;;74.35;41.13;;;;;;;0.65;100.00;100401.25;2115955;28;20639;-77
2021/10/10 00:55:06;;;;;;;70.82;40.88;;;;;;;0.63;100.00;100398.81;2116044;28;20208;-78
2021/10/10 00:56:10;;;;;;;78.00;41.08;;;;;;;0.59;100.00;100394.94;2115823;28;20213;-78
2021/10/10 00:57:14;;;;;;;68.10;41.13;;;;;;;0.59;100.00;100399.41;2116083;27;20197;-77
2021/10/10 00:58:23;;;;;;;67.80;40.88;;;;;;;0.60;100.00;100401.81;2107691;28;20712;-78
2021/10/10 00:59:29;;;;;;;67.18;40.85;;;;;;;0.59;100.00;100397.56;2108240;28;20225;-78
2021/10/10 01:00:31;;;;;;;67.63;40.95;;;;;;;0.60;100.00;100393.13;2107206;28;20221;-78
2021/10/10 01:01:34;;;;;;;68.18;41.08;;;;;;;0.58;100.00;100395.97;2107366;28;20289;-78
2021/10/10 01:02:38;;;;;;;66.18;41.22;;;;;;;0.57;100.00;100405.66;2116075;28;20181;-77
2021/10/10 01:03:41;;;;;;;70.57;40.83;;;;;;;0.57;100.00;100399.59;2115638;28;20257;-77
2021/10/10 01:04:45;;;;;;;63.28;40.03;;;;;;;0.57;100.00;100402.22;2107046;28;20201;-78
2021/10/10 01:05:50;;;;;;;72.28;40.20;;;;;;;0.57;100.00;100395.16;2108153;28;20205;-77
2021/10/10 01:06:56;;;;;;;73.40;42.30;;;;;;;0.56;100.00;100395.34;2108103;28;20198;-77
2021/10/10 01:08:00;;;;;;;70.72;42.28;;;;;;;0.55;100.00;100397.19;2107976;28;20209;-77
2021/10/10 01:09:01;;;;;;;68.78;40.85;;;;;;;0.54;100.00;100398.19;2107886;28;20212;-78
2021/10/10 01:10:06;;;;;;;70.60;41.88;;;;;;;0.54;100.00;100402.63;2115662;28;20185;-78
2021/10/10 01:11:09;;;;;;;65.32;40.38;;;;;;;0.53;100.00;100399.19;2115757;28;20319;-78
2021/10/10 01:12:19;;;;;;;63.83;41.08;;;;;;;0.52;100.00;100402.84;2115423;28;20193;-78
2021/10/10 01:13:26;;;;;;;64.60;40.35;;;;;;;0.54;100.00;100403.44;2108229;28;20202;-77
2021/10/10 01:14:32;;;;;;;76.25;42.45;;;;;;;0.54;100.00;100400.81;2115916;28;20216;-77
2021/10/10 01:15:36;;;;;;;68.93;39.92;;;;;;;0.52;100.00;100386.25;2116232;28;20643;-77
2021/10/10 01:16:42;;;;;;;67.47;40.67;;;;;;;0.52;100.00;100392.31;2116092;28;20220;-77
2021/10/10 01:17:57;;;;;;;68.57;41.38;;;;;;;0.51;100.00;100389.88;2116521;28;20525;-77
2021/10/10 01:19:01;;;;;;;67.40;41.47;;;;;;;0.49;100.00;100386.66;2116221;28;20200;-77
2021/10/10 01:20:10;;;;;;;66.80;41.17;;;;;;;0.48;100.00;100392.91;2115426;28;20200;-77
2021/10/10 01:21:17;;;;;;;63.97;40.38;;;;;;;0.48;100.00;100396.34;2115944;28;20181;-77
2021/10/10 01:22:20;;;;;;;66.68;40.55;;;;;;;0.46;100.00;100390.47;2115758;27;20257;-77
2021/10/10 01:23:24;;;;;;;65.38;40.53;;;;;;;0.46;100.00;100400.97;2115540;28;20592;-77
2021/10/10 01:24:32;;;;;;;68.90;40.90;;;;;;;0.48;100.00;100393.72;2115441;28;20193;-77
2021/10/10 01:25:37;;;;;;;66.30;40.00;;;;;;;0.48;100.00;100388.47;2115512;28;20196;-77
2021/10/10 01:26:48;;;;;;;64.40;41.20;;;;;;;0.48;100.00;100391.09;2108060;28;20293;-77
2021/10/10 01:28:00;;;;;;;75.60;42.75;;;;;;;0.44;100.00;100387.25;2108667;28;20197;-77
2021/10/10 01:29:01;;;;;;;66.18;41.55;;;;;;;0.44;100.00;100384.63;2108600;28;20592;-77
2021/10/10 01:30:03;;;;;;;67.80;42.77;;;;;;;0.43;100.00;100388.22;2106982;28;20212;-77
2021/10/10 01:31:10;;;;;;;71.75;42.78;;;;;;;0.45;100.00;100388.06;2115374;28;20458;-77
2021/10/10 01:32:16;;;;;;;67.82;40.97;;;;;;;0.43;100.00;100382.97;2115586;28;20208;-78
2021/10/10 01:33:23;;;;;;;66.45;41.75;;;;;;;0.44;100.00;100378.56;2114824;28;20307;-78
2021/10/10 01:34:28;;;;;;;71.88;42.92;;;;;;;0.41;100.00;100379.75;2115217;28;20224;-78
2021/10/10 01:35:34;;;;;;;68.20;41.60;;;;;;;0.40;100.00;100370.25;2107699;28;20193;-78
2021/10/10 01:36:41;;;;;;;71.95;42.17;;;;;;;0.39;100.00;100384.38;2108106;28;20287;-78
2021/10/10 01:37:43;;;;;;;72.78;42.22;;;;;;;0.38;100.00;100374.91;2107201;28;20235;-78
2021/10/10 01:38:48;;;;;;;63.95;40.63;;;;;;;0.38;100.00;100379.34;2107444;28;20754;-78
2021/10/10 01:39:55;;;;;;;68.78;40.90;;;;;;;0.38;100.00;100377.53;2108294;28;20710;-78
2021/10/10 01:40:56;;;;;;;61.42;40.42;;;;;;;0.39;100.00;100378.34;2115475;28;20185;-78
2021/10/10 01:41:59;;;;;;;69.88;41.75;;;;;;;0.36;100.00;100369.03;2116039;28;20723;-78
2021/10/10 01:43:03;;;;;;;74.30;42.50;;;;;;;0.39;100.00;100373.91;2115999;28;20245;-78
2021/10/10 01:44:05;;;;;;;69.65;42.55;;;;;;;0.37;100.00;100365.41;2115210;28;20216;-78
2021/10/10 01:45:13;;;;;;;63.72;40.30;;;;;;;0.39;100.00;100371.28;2115512;28;20193;-78
2021/10/10 01:46:16;;;;;;;65.20;41.03;;;;;;;0.37;100.00;100375.91;2115632;27;20303;-78
2021/10/10 01:47:18;;;;;;;60.65;39.15;;;;;;;0.37;100.00;100373.28;2107093;28;20194;-78
2021/10/10 01:48:22;;;;;;;63.92;40.47;;;;;;;0.35;100.00;100364.81;2115295;28;20185;-78
2021/10/10 01:49:24;;;;;;;66.82;40.53;;;;;;;0.33;100.00;100366.00;2116003;28;20561;-78
2021/10/10 01:50:28;;;;;;;70.03;41.17;;;;;;;0.31;100.00;100362.75;2115276;28;20216;-78
2021/10/10 01:51:28;;;;;;;69.95;40.10;;;;;;;0.34;100.00;100368.41;2115587;28;20185;-77
2021/10/10 01:52:33;;;;;;;68.63;39.87;;;;;;;0.32;100.00;100370.44;2115994;28;20189;-78
2021/10/10 01:53:36;;;;;;;64.68;40.33;;;;;;;0.31;100.00;100363.56;2116073;28;20392;-78
2021/10/10 01:54:40;;;;;;;67.75;40.10;;;;;;;0.32;100.00;100373.06;2115880;28;20670;-77
2021/10/10 01:55:45;;;;;;;65.30;40.72;;;;;;;0.33;100.00;100376.47;2115517;28;20201;-78
2021/10/10 01:56:48;;;;;;;67.70;41.00;;;;;;;0.32;100.00;100375.69;2115191;28;20271;-78
2021/10/10 01:57:49;;;;;;;59.03;39.28;;;;;;;0.30;100.00;100372.44;2115869;28;20724;-78
2021/10/10 01:58:52;;;;;;;63.13;40.83;;;;;;;0.31;100.00;100368.00;2115189;28;20192;-78
2021/10/10 01:59:55;;;;;;;65.03;40.83;;;;;;;0.29;100.00;100368.22;2115187;28;20275;-77
2021/10/10 02:00:59;;;;;;;63.05;40.83;;;;;;;0.26;100.00;100368.56;2115322;28;20219;-78
2021/10/10 02:02:00;;;;;;;73.40;41.63;;;;;;;0.25;100.00;100359.91;2115908;27;20658;-77
2021/10/10 02:03:04;;;;;;;68.63;40.55;;;;;;;0.25;100.00;100365.16;2115061;28;20201;-78
2021/10/10 02:04:06;;;;;;;68.38;41.42;;;;;;;0.25;100.00;100356.47;2107428;28;20237;-78
2021/10/10 02:05:10;;;;;;;65.78;39.72;;;;;;;0.23;100.00;100358.47;2115477;28;20200;-78
2021/10/10 02:06:13;;;;;;;61.17;38.67;;;;;;;0.22;100.00;100362.13;2115238;28;20193;-77
2021/10/10 02:07:16;;;;;;;64.25;38.88;;;;;;;0.19;100.00;100358.09;2107068;28;20253;-77
2021/10/10 02:08:20;;;;;;;66.40;41.33;;;;;;;0.21;100.00;100363.13;2107281;28;20206;-78
2021/10/10 02:09:24;;;;;;;68.10;40.35;;;;;;;0.18;100.00;100361.72;2115228;28;20185;-78
2021/10/10 02:10:26;;;;;;;69.15;40.67;;;;;;;0.17;100.00;100362.69;2115868;28;20192;-77
2021/10/10 02:11:28;;;;;;;65.75;40.22;;;;;;;0.17;100.00;100359.25;2114885;28;20247;-77
2021/10/10 02:12:31;;;;;;;56.03;39.05;;;;;;;0.14;100.00;100357.03;2115434;28;20710;-77
2021/10/10 02:13:33;;;;;;;62.67;40.25;;;;;;;0.13;100.00;100352.81;2115236;28;20187;-78
2021/10/10 02:14:38;;;;;;;65.13;40.92;;;;;;;0.12;100.00;100357.25;2115322;27;20207;-78
2021/10/10 02:15:41;;;;;;;67.65;39.92;;;;;;;0.09;100.00;100357.63;2115154;28;20201;-78
2021/10/10 02:16:43;;;;;;;70.55;39.55;;;;;;;0.11;100.00;100357.44;2114161;28;20265;-77
2021/10/10 02:17:47;;;;;;;59.63;37.70;;;;;;;0.11;100.00;100358.25;2115146;28;20193;-77
2021/10/10 02:18:49;;;;;;;66.75;41.22;;;;;;;0.11;100.00;100357.44;2115784;28;20200;-78
2021/10/10 02:19:52;;;;;;;72.05;40.03;;;;;;;0.10;100.00;100356.63;2115043;28;20200;-77
2021/10/10 02:20:55;;;;;;;65.10;38.97;;;;;;;0.12;100.00;100356.44;2107273;28;20288;-77
2021/10/10 02:22:01;;;;;;;67.38;39.15;;;;;;;0.11;100.00;100360.06;2107651;28;20198;-78
2021/10/10 02:23:03;;;;;;;65.60;38.55;;;;;;;0.12;100.00;100359.06;2115134;28;20189;-78
2021/10/10 02:24:07;;;;;;;63.28;38.63;;;;;;;0.09;100.00;100355.00;2115053;28;20608;-78
2021/10/10 02:25:11;;;;;;;62.63;39.20;;;;;;;0.06;100.00;100354.56;2107178;28;20644;-77
2021/10/10 02:26:14;;;;;;;66.32;39.90;;;;;;;0.09;100.00;100364.66;2107289;28;20205;-78
2021/10/10 02:27:16;;;;;;;61.17;38.60;;;;;;;0.06;100.00;100365.06;2106685;28;20225;-78
2021/10/10 02:28:19;;;;;;;61.80;38.92;;;;;;;0.06;100.00;100370.31;2106988;28;20205;-78
2021/10/10 02:29:23;;;;;;;65.20;38.85;;;;;;;0.05;100.00;100366.09;2107360;28;20594;-77
2021/10/10 02:30:25;;;;;;;67.28;40.92;;;;;;;0.01;100.00;100364.88;2106915;28;20293;-78
2021/10/10 02:31:28;;;;;;;65.13;40.13;;;;;;;0.02;100.00;100364.66;2107123;28;20223;-77
2021/10/10 02:32:31;;;;;;;65.82;38.83;;;;;;;0.02;100.00;100364.66;2115025;28;20193;-77
2021/10/10 02:33:36;;;;;;;64.63;39.85;;;;;;;-0.01;100.00;100368.47;2115242;27;20204;-77
2021/10/10 02:34:39;;;;;;;67.63;38.72;;;;;;;0.00;100.00;100364.06;2115272;28;20216;-77
2021/10/10 02:35:46;;;;;;;64.00;39.60;;;;;;;0.01;100.00;100368.28;2115444;28;20192;-77
2021/10/10 02:36:50;;;;;;;71.72;40.42;;;;;;;0.00;100.00;100366.69;2114992;28;20248;-78
2021/10/10 02:37:56;;;;;;;64.38;38.45;;;;;;;-0.04;100.00;100366.25;2106789;28;20205;-78
2021/10/10 02:38:59;;;;;;;65.88;39.88;;;;;;;-0.03;100.00;100367.06;2114129;28;20296;-77
2021/10/10 02:40:06;;;;;;;67.55;41.17;;;;;;;-0.03;100.00;100362.63;2114268;28;20197;-77
2021/10/10 02:41:08;;;;;;;64.32;39.22;;;;;;;-0.05;100.00;100369.88;2115260;28;20181;-78
2021/10/10 02:42:14;;;;;;;66.00;40.00;;;;;;;-0.07;100.00;100365.84;2115214;28;20787;-78
2021/10/10 02:43:16;;;;;;;65.63;38.42;;;;;;;-0.06;100.00;100367.44;2114952;28;20193;-77
2021/10/10 02:44:21;;;;;;;61.70;39.45;;;;;;;-0.08;100.00;100370.28;2115164;27;20737;-77
2021/10/10 02:45:23;;;;;;;66.20;39.45;;;;;;;-0.08;100.00;100362.41;2115020;28;20259;-77
2021/10/10 02:46:28;;;;;;;65.25;40.53;;;;;;;-0.09;100.00;100358.16;2115124;28;20203;-77
2021/10/10 02:47:30;;;;;;;62.95;39.92;;;;;;;-0.09;100.00;100370.44;2115238;28;20196;-78
2021/10/10 02:48:35;;;;;;;63.40;39.30;;;;;;;-0.11;100.00;100362.78;2115232;27;20218;-77
2021/10/10 02:49:37;;;;;;;66.47;41.20;;;;;;;-0.10;100.00;100363.59;2107151;28;20273;-77
2021/10/10 02:50:45;;;;;;;67.00;40.92;;;;;;;-0.10;100.00;100360.97;2106514;28;20280;-78
2021/10/10 02:51:47;;;;;;;61.78;38.40;;;;;;;-0.13;100.00;100356.91;2107544;28;20300;-78
2021/10/10 02:52:52;;;;;;;66.90;41.22;;;;;;;-0.13;100.00;100364.78;2114837;28;20187;-77
2021/10/10 02:53:59;;;;;;;65.15;40.40;;;;;;;-0.13;100.00;100367.41;2115467;28;20225;-78
2021/10/10 02:55:04;;;;;;;60.63;39.22;;;;;;;-0.13;100.00;100362.16;2115587;28;20180;-78
2021/10/10 02:56:06;;;;;;;67.95;40.85;;;;;;;-0.13;100.00;100366.59;2115609;28;20249;-78
2021/10/10 02:57:12;;;;;;;71.95;40.20;;;;;;;-0.14;100.00;100362.38;2114737;28;20735;-78
2021/10/10 02:58:17;;;;;;;74.00;39.72;;;;;;;-0.15;100.00;100364.19;2107365;28;20238;-78
2021/10/10 02:59:22;;;;;;;70.57;40.00;;;;;;;-0.16;100.00;100361.75;2115274;28;20651;-77
2021/10/10 03:00:28;;;;;;;58.75;39.05;;;;;;;-0.18;100.00;100355.88;2115079;28;20216;-78
2021/10/10 03:01:29;;;;;;;61.58;39.08;;;;;;;-0.18;100.00;100364.53;2114453;28;20205;-77
2021/10/10 03:02:33;;;;;;;63.45;39.30;;;;;;;-0.18;100.00;100361.91;2115533;28;20204;-77
2021/10/10 03:03:37;;;;;;;65.00;40.63;;;;;;;-0.22;100.00;100357.28;2114663;28;20577;-78
2021/10/10 03:04:42;;;;;;;66.35;39.53;;;;;;;-0.19;100.00;100362.94;2114756;28;20200;-77
2021/10/10 03:05:46;;;;;;;63.05;40.20;;;;;;;-0.19;100.00;100368.16;2115367;28;20241;-77
2021/10/10 03:06:52;;;;;;;66.15;40.28;;;;;;;-0.19;100.00;100364.75;2115490;28;20188;-77
2021/10/10 03:07:59;;;;;;;61.80;38.65;;;;;;;-0.21;100.00;100359.69;2114717;28;20205;-77
2021/10/10 03:09:00;;;;;;;57.95;38.35;;;;;;;-0.20;100.00;100360.50;2114876;28;20185;-77
2021/10/10 03:10:07;;;;;;;63.65;40.15;;;;;;;-0.20;100.00;100366.56;2115714;28;20751;-78
2021/10/10 03:11:14;;;;;;;65.70;39.30;;;;;;;-0.23;100.00;100358.28;2114722;28;20715;-77
2021/10/10 03:12:18;;;;;;;65.60;40.75;;;;;;;-0.24;100.00;100362.72;2107515;28;20238;-77
2021/10/10 03:13:24;;;;;;;70.10;40.67;;;;;;;-0.24;100.00;100361.91;2114409;28;20568;-78
2021/10/10 03:14:28;;;;;;;65.90;39.67;;;;;;;-0.26;100.00;100356.84;2114510;28;20200;-77
2021/10/10 03:15:33;;;;;;;63.33;39.92;;;;;;;-0.27;100.00;100352.59;2114937;28;20238;-77
2021/10/10 03:16:35;;;;;;;66.95;40.03;;;;;;;-0.26;100.00;100362.09;2114162;28;20208;-77
2021/10/10 03:17:39;;;;;;;67.90;40.80;;;;;;;-0.26;100.00;100362.09;2106335;28;20204;-77
2021/10/10 03:18:45;;;;;;;62.28;38.22;;;;;;;-0.26;100.00;100361.25;2107207;28;20447;-77
2021/10/10 03:19:50;;;;;;;64.35;40.40;;;;;;;-0.29;100.00;100359.84;2106839;28;20206;-77
2021/10/10 03:20:54;;;;;;;60.28;38.42;;;;;;;-0.30;100.00;100353.00;2114820;28;20691;-77
2021/10/10 03:21:59;;;;;;;69.55;40.55;;;;;;;-0.29;100.00;100357.22;2114805;28;20208;-77
2021/10/10 03:23:00;;;;;;;64.13;39.95;;;;;;;-0.28;100.00;100353.59;2114903;28;20193;-77
2021/10/10 03:24:02;;;;;;;62.95;38.53;;;;;;;-0.32;100.00;100353.19;2115034;28;20269;-77
2021/10/10 03:25:05;;;;;;;68.30;39.78;;;;;;;-0.29;100.00;100354.59;2114766;28;20209;-78
2021/10/10 03:26:10;;;;;;;68.22;40.97;;;;;;;-0.32;100.00;100352.38;2106464;28;20200;-77
2021/10/10 03:27:13;;;;;;;62.50;40.90;;;;;;;-0.34;100.00;100357.00;2106849;28;20204;-77
2021/10/10 03:28:20;;;;;;;63.08;39.72;;;;;;;-0.33;100.00;100359.44;2106895;28;20742;-77
2021/10/10 03:29:24;;;;;;;66.78;39.60;;;;;;;-0.33;100.00;100361.25;2107367;28;20288;-77
2021/10/10 03:30:31;;;;;;;68.15;39.83;;;;;;;-0.36;100.00;100353.75;2106999;28;20224;-78
2021/10/10 03:31:35;;;;;;;56.42;39.17;;;;;;;-0.36;100.00;100351.94;2106809;28;20251;-78
2021/10/10 03:32:40;;;;;;;65.35;40.05;;;;;;;-0.37;100.00;100355.56;2107034;28;20293;-77
2021/10/10 03:33:45;;;;;;;68.43;40.22;;;;;;;-0.38;100.00;100351.31;2114776;28;20189;-77
2021/10/10 03:34:49;;;;;;;65.50;39.28;;;;;;;-0.39;100.00;100343.66;2115341;28;20264;-77
2021/10/10 03:35:54;;;;;;;63.13;40.38;;;;;;;-0.40;100.00;100345.47;2114255;28;20775;-77
2021/10/10 03:36:56;;;;;;;67.60;40.92;;;;;;;-0.39;100.00;100343.66;2106692;28;20274;-78
2021/10/10 03:38:01;;;;;;;65.75;39.83;;;;;;;-0.42;100.00;100341.44;2114871;28;20193;-77
2021/10/10 03:39:07;;;;;;;68.00;39.63;;;;;;;-0.41;100.00;100351.72;2115476;28;20193;-77
2021/10/10 03:40:15;;;;;;;67.20;41.85;;;;;;;-0.40;100.00;100344.66;2114039;28;20200;-77
2021/10/10 03:41:18;;;;;;;63.88;39.03;;;;;;;-0.41;100.00;100345.66;2114728;28;20693;-77
2021/10/10 03:42:24;;;;;;;66.80;39.22;;;;;;;-0.39;100.00;100348.91;2114973;28;20254;-77
2021/10/10 03:43:27;;;;;;;58.15;38.72;;;;;;;-0.40;100.00;100344.66;2114730;28;20226;-77
2021/10/10 03:44:29;;;;;;;68.82;40.70;;;;;;;-0.46;100.00;100338.38;2114890;28;20200;-77
2021/10/10 03:45:36;;;;;;;65.45;39.85;;;;;;;-0.43;100.00;100335.38;2114756;28;20193;-77
2021/10/10 03:46:42;;;;;;;66.50;39.42;;;;;;;-0.42;100.00;100336.19;2114656;28;20211;-76
2021/10/10 03:47:48;;;;;;;62.22;39.63;;;;;;;-0.43;100.00;100337.19;2114673;28;20683;-77
2021/10/10 03:48:53;;;;;;;66.65;39.25;;;;;;;-0.43;100.00;100335.38;2116247;28;20208;-77
2021/10/10 03:49:55;;;;;;;63.78;39.25;;;;;;;-0.43;100.00;100331.94;2108557;28;20256;-78
2021/10/10 03:50:56;;;;;;;70.32;40.20;;;;;;;-0.49;100.00;100325.66;2116467;28;20596;-77
2021/10/10 03:52:01;;;;;;;73.15;41.28;;;;;;;-0.46;100.00;100333.13;2116965;28;20185;-77
2021/10/10 03:53:05;;;;;;;65.55;41.03;;;;;;;-0.48;100.00;100323.84;2116346;28;20222;-77
2021/10/10 03:55:31;;;;;;;65.70;38.05;;;;;;;-0.50;100.00;100331.09;2108896;28;20619;-77
2021/10/10 03:56:38;;;;;;;63.10;40.25;;;;;;;-0.50;100.00;100326.66;2116368;28;20194;-77
2021/10/10 03:57:39;;;;;;;64.43;39.55;;;;;;;-0.50;100.00;100333.72;2116484;27;20320;-77
2021/10/10 03:58:43;;;;;;;67.28;41.75;;;;;;;-0.51;100.00;100322.44;2108034;28;20198;-77
2021/10/10 03:59:49;;;;;;;64.45;40.03;;;;;;;-0.54;100.00;100322.78;2116425;28;20201;-77
2021/10/10 04:00:52;;;;;;;68.05;40.63;;;;;;;-0.54;100.00;100328.03;2116883;28;20188;-77
2021/10/10 04:01:54;;;;;;;71.93;40.63;;;;;;;-0.54;100.00;100328.03;2116071;28;20668;-77
2021/10/10 04:03:00;;;;;;;66.60;41.10;;;;;;;-0.54;100.00;100325.41;2107863;28;20687;-77
2021/10/10 04:04:03;;;;;;;66.15;40.40;;;;;;;-0.57;100.00;100323.19;2116612;28;20643;-77
2021/10/10 04:05:15;;;;;;;63.42;39.90;;;;;;;-0.59;100.00;100319.94;2116520;27;20246;-77
2021/10/10 04:06:19;;;;;;;67.85;39.40;;;;;;;-0.58;100.00;100322.38;2116382;28;20176;-77
2021/10/10 04:07:23;;;;;;;65.68;40.22;;;;;;;-0.61;100.00;100325.38;2116523;27;20271;-77
2021/10/10 04:08:27;;;;;;;63.63;40.45;;;;;;;-0.61;100.00;100328.00;2107529;28;20197;-77
2021/10/10 04:09:30;;;;;;;63.42;38.70;;;;;;;-0.61;100.00;100319.31;2116186;28;20551;-77
2021/10/10 04:10:35;;;;;;;63.38;39.05;;;;;;;-0.65;100.00;100318.09;2116747;28;20196;-77
2021/10/10 04:11:39;;;;;;;66.13;40.13;;;;;;;-0.65;100.00;100326.75;2099230;28;20202;-77
2021/10/10 04:12:41;;;;;;;62.22;38.72;;;;;;;-0.67;100.00;100327.97;2099487;28;20190;-77
2021/10/10 04:13:44;;;;;;;70.93;39.38;;;;;;;-0.71;100.00;100316.22;2099210;28;20190;-77
2021/10/10 04:14:47;;;;;;;58.60;40.47;;;;;;;-0.73;100.00;100326.91;2099414;28;20223;-77
2021/10/10 04:15:51;;;;;;;62.38;39.53;;;;;;;-0.76;100.00;100324.69;2099879;28;20190;-77
2021/10/10 04:16:54;;;;;;;65.65;40.70;;;;;;;-0.72;100.00;100333.75;2099775;28;20198;-77
2021/10/10 04:17:58;;;;;;;62.13;40.08;;;;;;;-0.74;100.00;100327.91;2098995;28;20197;-77
2021/10/10 04:18:59;;;;;;;66.88;41.22;;;;;;;-0.76;100.00;100327.28;2099302;28;20190;-77
2021/10/10 04:20:03;;;;;;;70.80;40.67;;;;;;;-0.79;100.00;100319.78;2099160;28;20285;-77
2021/10/10 04:21:05;;;;;;;60.10;39.33;;;;;;;-0.80;100.00;100325.22;2099306;28;20424;-77
2021/10/10 04:22:08;;;;;;;65.65;40.28;;;;;;;-0.81;100.00;100321.81;2099852;28;20190;-77
2021/10/10 04:23:11;;;;;;;65.82;41.30;;;;;;;-0.83;100.00;100318.56;2099889;28;20182;-77
2021/10/10 04:24:14;;;;;;;66.13;41.58;;;;;;;-0.84;100.00;100316.97;2099151;28;20206;-77
2021/10/10 04:25:19;;;;;;;65.13;40.30;;;;;;;-0.84;100.00;100321.38;2091008;28;20210;-77
2021/10/10 04:26:22;;;;;;;62.70;39.60;;;;;;;-0.85;100.00;100325.81;2099238;28;20198;-77
2021/10/10 04:27:25;;;;;;;63.67;41.60;;;;;;;-0.87;100.00;100323.41;2099139;28;20191;-77
2021/10/10 04:28:30;;;;;;;71.57;41.25;;;;;;;-0.89;100.00;100324.56;2099245;28;20290;-77
2021/10/10 04:29:36;;;;;;;72.40;41.72;;;;;;;-0.89;100.00;100319.31;2099941;28;20190;-77
2021/10/10 04:30:41;;;;;;;69.60;41.40;;;;;;;-0.89;100.00;100329.81;2099139;28;20191;-76
2021/10/10 04:31:46;;;;;;;64.47;41.03;;;;;;;-0.89;100.00;100328.00;2099160;28;20597;-76
2021/10/10 04:32:50;;;;;;;65.13;40.85;;;;;;;-0.90;100.00;100329.00;2099729;28;20195;-77
2021/10/10 04:33:51;;;;;;;72.25;42.83;;;;;;;-0.90;100.00;100323.75;2099094;28;20236;-77
2021/10/10 04:34:56;;;;;;;68.53;41.78;;;;;;;-0.90;100.00;100329.00;2090817;28;20199;-77
2021/10/10 04:35:59;;;;;;;63.83;41.28;;;;;;;-0.90;100.00;100320.31;2099234;28;20194;-77
2021/10/10 04:37:03;;;;;;;62.63;40.03;;;;;;;-0.90;100.00;100329.00;2099687;28;20221;-77
2021/10/10 04:38:08;;;;;;;64.00;41.00;;;;;;;-0.91;100.00;100323.94;2099332;28;20222;-77
2021/10/10 04:39:13;;;;;;;68.10;40.70;;;;;;;-0.90;100.00;100328.19;2091845;28;20259;-77
2021/10/10 04:40:16;;;;;;;61.83;41.10;;;;;;;-0.89;100.00;100327.19;2091084;28;20237;-77
2021/10/10 04:41:19;;;;;;;67.82;41.20;;;;;;;-0.89;100.00;100327.19;2099185;28;20186;-76
2021/10/10 04:42:29;;;;;;;64.47;41.10;;;;;;;-0.91;100.00;100331.81;2099799;28;20649;-77
2021/10/10 04:43:32;;;;;;;65.95;39.88;;;;;;;-0.93;100.00;100324.16;2098855;28;20205;-77
2021/10/10 04:44:40;;;;;;;64.82;41.60;;;;;;;-0.94;100.00;100330.38;2091035;28;20669;-77
2021/10/10 04:45:46;;;;;;;69.80;40.25;;;;;;;-0.95;100.00;100317.47;2098949;28;20202;-77
2021/10/10 04:46:47;;;;;;;72.07;41.42;;;;;;;-0.94;100.00;100321.72;2099113;28;20205;-77
2021/10/10 04:47:54;;;;;;;64.82;41.72;;;;;;;-0.93;100.00;100318.09;2099708;28;20174;-77
2021/10/10 04:48:56;;;;;;;64.30;40.60;;;;;;;-0.93;100.00;100320.72;2098900;28;20340;-77
2021/10/10 04:50:04;;;;;;;70.13;42.42;;;;;;;-0.94;100.00;100321.72;2099095;28;20198;-77
2021/10/10 04:51:07;;;;;;;64.80;40.28;;;;;;;-0.94;100.00;100319.09;2099700;28;20277;-77
2021/10/10 04:52:15;;;;;;;68.18;41.63;;;;;;;-0.93;100.00;100320.72;2099235;28;20256;-77